Time;durP1;ratioP1;P1;durP2;ratioP2;P2;SDS_P1;SDS_P2;PMS_P1;PMS_P2;Temp;Humidity;BMP_temperature;BMP_pressure;BME280_temperature;BME280_humidity;BME280_pressure;Samples;Min_cycle;Max_cycle;Signal;HPM_P1;HPM_P2
2022/06/11 00:00:28;;;;;;;4.75;2.58;;;;;;;15.84;54.53;101312.30;1682926;82;25782;-63
2022/06/11 00:02:54;;;;;;;6.35;2.33;;;;;;;15.82;54.64;101315.08;1691479;82;98802;-64
2022/06/11 00:05:21;;;;;;;6.20;2.45;;;;;;;15.83;54.75;101318.66;1669737;84;25763;-63
2022/06/11 00:07:49;;;;;;;9.58;2.47;;;;;;;15.80;54.87;101310.72;1683181;82;98776;-63
2022/06/11 00:10:17;;;;;;;5.05;2.22;;;;;;;15.76;54.94;101315.41;1680729;82;25780;-63
2022/06/11 00:12:43;;;;;;;15.40;6.87;;;;;;;15.75;55.12;101317.72;1661470;84;25795;-64
2022/06/11 00:15:11;;;;;;;19.90;10.28;;;;;;;15.73;55.26;101316.93;1705373;82;98622;-64
2022/06/11 00:17:40;;;;;;;25.65;10.60;;;;;;;15.74;55.38;101310.57;1701192;82;25384;-63
2022/06/11 00:20:08;;;;;;;14.40;7.42;;;;;;;15.75;55.48;101314.14;1708782;82;98149;-63
2022/06/11 00:22:35;;;;;;;14.70;6.03;;;;;;;15.74;55.54;101316.45;1702724;82;25789;-63
2022/06/11 00:25:04;;;;;;;6.65;3.00;;;;;;;15.73;55.62;101315.58;1703478;82;99098;-64
2022/06/11 00:27:32;;;;;;;8.85;3.37;;;;;;;15.71;55.71;101310.73;1696876;82;27506;-63
2022/06/11 00:30:00;;;;;;;8.15;3.58;;;;;;;15.69;55.81;101314.00;1702018;82;25843;-63
2022/06/11 00:32:26;;;;;;;6.12;2.90;;;;;;;15.68;55.92;101316.30;1708588;82;97805;-63
2022/06/11 00:34:58;;;;;;;7.92;3.47;;;;;;;15.69;56.04;101318.53;1710362;82;25827;-63
2022/06/11 00:37:23;;;;;;;5.47;2.80;;;;;;;15.68;56.11;101320.36;1666133;83;98819;-64
2022/06/11 00:39:49;;;;;;;7.28;2.90;;;;;;;15.66;56.17;101314.16;1685963;82;27388;-64
2022/06/11 00:42:23;;;;;;;7.00;2.80;;;;;;;15.62;56.27;101319.34;1691801;82;25890;-64
2022/06/11 00:44:53;;;;;;;9.70;3.22;;;;;;;15.59;56.33;101312.78;1687787;82;98766;-64
2022/06/11 00:47:25;;;;;;;7.08;3.52;;;;;;;15.53;56.43;101309.89;1661892;84;25885;-64
2022/06/11 00:50:00;;;;;;;9.75;3.10;;;;;;;15.52;56.66;101320.78;1657959;84;98715;-63
2022/06/11 00:52:37;;;;;;;5.50;3.17;;;;;;;15.52;56.76;101320.30;1704919;82;27470;-64
2022/06/11 00:55:14;;;;;;;4.25;2.85;;;;;;;15.52;56.85;101316.73;1712840;81;98870;-64
2022/06/11 00:57:51;;;;;;;5.92;3.15;;;;;;;15.50;56.93;101317.29;1721511;81;25853;-64
2022/06/11 01:00:24;;;;;;;4.58;2.52;;;;;;;15.49;57.05;101322.30;1720366;81;26176;-65
2022/06/11 01:02:52;;;;;;;5.67;2.83;;;;;;;15.43;57.11;101323.50;1699633;82;98779;-64
2022/06/11 01:05:23;;;;;;;7.70;2.80;;;;;;;15.39;57.21;101323.73;1705552;82;27550;-64
2022/06/11 01:08:24;;;;;;;9.58;3.42;;;;;;;15.38;57.28;101324.21;1702221;82;98834;-64
2022/06/11 01:11:05;;;;;;;6.58;2.80;;;;;;;15.34;57.38;101323.11;1677376;82;25785;-63
2022/06/11 01:13:46;;;;;;;8.65;3.08;;;;;;;15.30;57.53;101321.04;1691016;82;98850;-65
2022/06/11 01:16:34;;;;;;;8.08;3.30;;;;;;;15.26;57.53;101319.45;1703308;82;25758;-64
2022/06/11 01:19:12;;;;;;;7.00;3.35;;;;;;;15.23;57.66;101319.61;1697485;82;99000;-63
2022/06/11 01:21:54;;;;;;;4.87;2.60;;;;;;;15.19;57.76;101316.20;1696682;82;25797;-63
2022/06/11 01:24:32;;;;;;;4.83;3.65;;;;;;;15.18;57.84;101317.15;1694268;82;25967;-64
2022/06/11 01:27:18;;;;;;;6.15;3.25;;;;;;;15.14;57.92;101312.86;1692372;82;98754;-63
2022/06/11 01:29:56;;;;;;;5.50;2.95;;;;;;;15.10;57.96;101317.14;1701863;82;26048;-63
2022/06/11 01:32:36;;;;;;;5.65;2.65;;;;;;;15.07;58.09;101314.61;1707784;82;98746;-63
2022/06/11 01:35:20;;;;;;;16.30;3.02;;;;;;;15.05;58.19;101322.78;1704857;82;26215;-65
2022/06/11 01:37:51;;;;;;;6.60;3.00;;;;;;;15.01;58.25;101320.31;1698192;82;98796;-63
2022/06/11 01:40:29;;;;;;;4.97;2.77;;;;;;;14.97;58.42;101314.67;1703285;82;25814;-63
2022/06/11 01:43:20;;;;;;;4.62;2.75;;;;;;;14.93;58.49;101313.95;1702178;82;98949;-65
2022/06/11 01:45:48;;;;;;;5.37;3.05;;;;;;;14.91;58.57;101313.16;1704347;82;27495;-63
2022/06/11 01:48:19;;;;;;;10.63;3.22;;;;;;;14.90;58.70;101316.81;1704122;82;26113;-65
2022/06/11 01:51:15;;;;;;;8.28;3.67;;;;;;;14.88;58.78;101318.23;1699704;82;98915;-63
2022/06/11 01:54:08;;;;;;;5.28;2.85;;;;;;;14.84;58.76;101321.17;1704469;82;26145;-62
2022/06/11 01:57:06;;;;;;;10.32;3.25;;;;;;;14.78;58.92;101325.52;1664873;84;98792;-63
2022/06/11 02:00:02;;;;;;;8.30;3.22;;;;;;;14.71;58.98;101316.86;1662938;84;27513;-63
2022/06/11 02:02:54;;;;;;;6.00;2.70;;;;;;;14.65;59.12;101325.26;1707738;81;98709;-63
2022/06/11 02:05:58;;;;;;;7.70;2.85;;;;;;;14.61;59.20;101325.02;1720305;81;25898;-63
2022/06/11 02:08:49;;;;;;;7.83;2.98;;;;;;;14.56;59.29;101322.54;1717605;81;98856;-63
2022/06/11 02:11:30;;;;;;;5.45;2.75;;;;;;;14.55;59.37;101333.41;1724634;81;26639;-63
2022/06/11 02:14:05;;;;;;;;;;;;;;;14.49;59.46;101335.05;1664677;83;98632;-64
2022/06/11 02:16:55;;;;;;;8.50;3.22;;;;;;;14.44;59.65;101328.53;1720646;81;25881;-63
2022/06/11 02:19:36;;;;;;;13.93;2.90;;;;;;;14.39;59.65;101329.67;1686965;82;98814;-63
2022/06/11 02:22:25;;;;;;;7.90;3.58;;;;;;;14.34;59.77;101331.23;1670966;84;26524;-63
2022/06/11 02:25:00;;;;;;;8.73;3.95;;;;;;;14.29;59.77;101334.16;1666553;83;99037;-65
2022/06/11 02:27:30;;;;;;;9.75;3.65;;;;;;;14.21;59.94;101334.99;1671967;83;28070;-64
2022/06/11 02:29:57;;;;;;;20.00;4.58;;;;;;;14.17;60.04;101341.95;1686875;82;25844;-64
2022/06/11 02:32:27;;;;;;;10.90;3.67;;;;;;;14.12;60.20;101341.29;1673936;82;98853;-64
2022/06/11 02:34:58;;;;;;;8.53;4.87;;;;;;;14.08;60.33;101336.52;1687206;82;25914;-64
2022/06/11 02:37:37;;;;;;;14.53;4.95;;;;;;;14.03;60.43;101329.59;1689639;82;98906;-64
2022/06/11 02:40:17;;;;;;;12.25;4.78;;;;;;;13.99;60.50;101328.86;1674101;83;28153;-63
2022/06/11 02:42:47;;;;;;;10.58;4.60;;;;;;;13.94;60.68;101326.38;1699558;82;25701;-63
2022/06/11 02:45:15;;;;;;;12.68;4.90;;;;;;;13.91;60.86;101335.08;1657869;84;98701;-63
2022/06/11 02:47:47;;;;;;;11.05;4.90;;;;;;;13.88;60.96;101340.14;1726908;81;25751;-63
2022/06/11 02:50:28;;;;;;;17.12;5.30;;;;;;;13.87;61.08;101334.81;1722928;81;98940;-63
2022/06/11 02:53:00;;;;;;;14.33;5.05;;;;;;;13.85;61.23;101342.97;1716284;81;27399;-63
2022/06/11 02:55:28;;;;;;;12.37;4.42;;;;;;;13.84;61.33;101334.95;1717625;81;98975;-63
2022/06/11 02:57:57;;;;;;;10.78;4.28;;;;;;;13.82;61.46;101340.41;1718563;81;25731;-63
2022/06/11 03:00:32;;;;;;;20.60;4.92;;;;;;;13.81;61.53;101346.75;1719931;81;25803;-63
2022/06/11 03:02:59;;;;;;;9.55;4.22;;;;;;;13.79;61.61;101343.73;1725439;81;98846;-64
2022/06/11 03:05:30;;;;;;;19.05;6.00;;;;;;;13.77;61.69;101343.80;1728995;81;28372;-63
2022/06/11 03:07:58;;;;;;;;;;;;;;;13.77;61.78;101347.83;1722791;81;98864;-63
2022/06/11 03:10:26;;;;;;;14.47;4.92;;;;;;;13.76;62.13;101348.78;1717123;81;25883;-63
2022/06/11 03:12:54;;;;;;;13.15;4.40;;;;;;;13.75;61.93;101355.59;1722941;80;99048;-64
2022/06/11 03:15:24;;;;;;;12.78;4.37;;;;;;;13.74;62.07;101357.88;1727382;81;25782;-63
2022/06/11 03:17:53;;;;;;;9.85;4.67;;;;;;;13.73;62.12;101360.16;1725082;81;27544;-63
2022/06/11 03:20:23;;;;;;;12.37;4.45;;;;;;;13.70;62.18;101357.14;1718307;81;98621;-63
2022/06/11 03:22:50;;;;;;;14.60;4.28;;;;;;;13.69;62.25;101363.47;1724822;81;25309;-63
2022/06/11 03:25:19;;;;;;;10.18;4.28;;;;;;;13.70;62.42;101365.22;1721205;81;99024;-63
2022/06/11 03:27:47;;;;;;;15.58;4.65;;;;;;;13.69;62.42;101366.64;1719632;81;25870;-63
2022/06/11 03:30:15;;;;;;;12.88;4.78;;;;;;;13.68;62.57;101360.84;1722984;81;27540;-63
2022/06/11 03:32:43;;;;;;;12.25;5.03;;;;;;;13.65;62.59;101364.08;1726318;81;98815;-63
2022/06/11 03:35:12;;;;;;;9.20;5.12;;;;;;;13.67;62.76;101359.97;1714264;81;25984;-63
2022/06/11 03:37:40;;;;;;;9.10;4.10;;;;;;;13.69;62.79;101362.13;1704242;82;98625;-63
2022/06/11 03:40:08;;;;;;;10.88;4.53;;;;;;;13.68;62.93;101362.19;1700029;82;25731;-63
2022/06/11 03:42:35;;;;;;;9.05;4.03;;;;;;;13.71;63.01;101365.63;1701057;82;27492;-65
2022/06/11 03:45:06;;;;;;;11.68;3.72;;;;;;;13.73;63.11;101363.73;1705009;82;98687;-63
2022/06/11 03:47:38;;;;;;;12.43;4.08;;;;;;;13.77;63.10;101371.20;1702975;82;25785;-62
2022/06/11 03:50:09;;;;;;;8.35;4.58;;;;;;;13.80;63.26;101374.64;1702507;82;98859;-63
2022/06/11 03:52:38;;;;;;;12.93;4.30;;;;;;;13.85;63.26;101375.31;1697939;82;25791;-63
2022/06/11 03:55:07;;;;;;;10.20;4.72;;;;;;;13.86;63.28;101370.80;1701217;82;99047;-63
2022/06/11 03:57:34;;;;;;;8.60;4.17;;;;;;;13.89;63.42;101367.48;1693931;82;25784;-63
2022/06/11 04:00:04;;;;;;;6.97;4.33;;;;;;;13.94;63.40;101376.23;1704680;82;25834;-63
2022/06/11 04:02:35;;;;;;;9.73;4.72;;;;;;;13.98;63.50;101371.11;1652448;84;98710;-63
2022/06/11 04:05:06;;;;;;;13.30;4.85;;;;;;;14.02;63.47;101379.06;1708905;81;25704;-63
2022/06/11 04:07:36;;;;;;;12.03;5.30;;;;;;;14.03;63.56;101370.90;1707436;81;99199;-63
2022/06/11 04:10:06;;;;;;;8.20;4.47;;;;;;;14.10;63.63;101379.58;1716780;81;25790;-65
2022/06/11 04:12:32;;;;;;;11.48;4.60;;;;;;;14.15;63.64;101377.55;1716473;81;25767;-63
2022/06/11 04:14:58;;;;;;;9.83;4.67;;;;;;;14.19;63.68;101373.28;1706421;81;98970;-63
2022/06/11 04:17:30;;;;;;;12.58;4.87;;;;;;;14.22;63.69;101374.48;1718754;81;25817;-63
2022/06/11 04:19:56;;;;;;;10.95;4.42;;;;;;;14.27;63.73;101378.32;1717533;81;99007;-64
2022/06/11 04:22:25;;;;;;;10.50;5.03;;;;;;;14.33;63.79;101376.69;1714395;81;25704;-63
2022/06/11 04:24:52;;;;;;;8.35;4.40;;;;;;;14.39;63.79;101373.70;1726354;81;99108;-64
2022/06/11 04:27:20;;;;;;;10.82;4.50;;;;;;;14.47;63.85;101372.89;1717676;81;27096;-64
2022/06/11 04:29:52;;;;;;;11.30;4.55;;;;;;;14.54;63.88;101368.95;1720202;81;25885;-64
2022/06/11 04:32:20;;;;;;;15.03;4.92;;;;;;;14.59;63.87;101370.95;1717368;81;99403;-64
2022/06/11 04:34:48;;;;;;;14.05;5.15;;;;;;;14.69;63.89;101375.90;1718264;81;26345;-64
2022/06/11 04:37:18;;;;;;;12.53;4.92;;;;;;;14.76;63.94;101372.83;1720847;81;99006;-64
2022/06/11 04:39:48;;;;;;;12.50;5.78;;;;;;;14.80;63.90;101371.73;1715270;81;25929;-64
2022/06/11 04:42:19;;;;;;;17.77;5.25;;;;;;;14.87;63.95;101368.25;1723103;81;26414;-64
2022/06/11 04:44:46;;;;;;;9.85;4.55;;;;;;;14.92;63.94;101374.30;1716071;81;98911;-63
2022/06/11 04:47:18;;;;;;;11.65;4.58;;;;;;;14.97;63.92;101368.19;1721692;81;25812;-64
2022/06/11 04:49:46;;;;;;;10.50;4.00;;;;;;;15.03;63.94;101367.02;1719019;81;99121;-64
2022/06/11 04:52:12;;;;;;;7.58;3.60;;;;;;;15.08;63.90;101372.58;1719701;81;25815;-63
2022/06/11 04:54:39;;;;;;;5.20;3.30;;;;;;;15.12;63.85;101367.42;1720423;81;25734;-63
2022/06/11 04:57:09;;;;;;;8.05;3.77;;;;;;;15.17;63.78;101368.06;1726457;81;98369;-63
2022/06/11 04:59:35;;;;;;;5.08;3.37;;;;;;;15.23;63.72;101369.58;1719625;81;26435;-64
2022/06/11 05:02:03;;;;;;;6.72;3.33;;;;;;;15.29;63.66;101367.91;1719642;81;98646;-64
2022/06/11 05:04:31;;;;;;;7.03;3.10;;;;;;;15.37;63.53;101368.39;1721961;81;25774;-63
2022/06/11 05:06:57;;;;;;;11.73;3.37;;;;;;;15.43;63.45;101366.72;1713083;80;98864;-64
2022/06/11 05:09:28;;;;;;;10.10;3.12;;;;;;;15.52;63.38;101364.02;1721540;81;27503;-63
2022/06/11 05:11:55;;;;;;;8.60;3.65;;;;;;;15.61;63.28;101368.06;1717287;81;26193;-63
2022/06/11 05:14:22;;;;;;;5.90;3.00;;;;;;;15.69;63.21;101363.13;1716698;81;98831;-63
2022/06/11 05:16:56;;;;;;;5.42;2.77;;;;;;;15.78;63.14;101369.39;1729704;81;27904;-63
2022/06/11 05:19:20;;;;;;;6.97;2.98;;;;;;;15.87;63.08;101375.19;1721022;81;98941;-66
2022/06/11 05:21:51;;;;;;;6.87;3.17;;;;;;;15.97;63.03;101379.62;1725534;81;28261;-64
2022/06/11 05:24:20;;;;;;;5.25;2.50;;;;;;;16.07;62.94;101377.28;1720632;81;27191;-63
2022/06/11 05:26:56;;;;;;;10.25;3.27;;;;;;;16.15;62.89;101375.91;1725550;81;98739;-63
2022/06/11 05:29:33;;;;;;;4.22;2.65;;;;;;;16.28;62.86;101377.46;1728589;81;25785;-63
2022/06/11 05:32:00;;;;;;;4.28;2.00;;;;;;;16.38;62.76;101373.77;1716257;81;98741;-63
2022/06/11 05:34:28;;;;;;;6.97;2.55;;;;;;;16.50;62.72;101375.30;1724053;80;27541;-63
2022/06/11 05:36:58;;;;;;;6.78;2.45;;;;;;;16.60;62.61;101373.43;1666166;84;98811;-63
2022/06/11 05:39:25;;;;;;;6.47;2.33;;;;;;;16.66;62.53;101367.22;1665567;84;25730;-63
2022/06/11 05:41:53;;;;;;;3.35;2.30;;;;;;;16.83;62.47;101373.02;1662607;84;25876;-63
2022/06/11 05:44:22;;;;;;;4.70;2.80;;;;;;;16.94;62.37;101370.56;1666429;83;98663;-63
2022/06/11 05:46:50;;;;;;;7.22;3.12;;;;;;;17.08;62.27;101376.05;1668449;84;29020;-64
2022/06/11 05:49:21;;;;;;;7.42;2.92;;;;;;;17.18;62.19;101369.60;1663307;82;98883;-63
2022/06/11 05:51:52;;;;;;;10.00;2.72;;;;;;;17.28;62.10;101369.93;1658778;84;25834;-63
2022/06/11 05:54:26;;;;;;;4.50;2.70;;;;;;;17.36;62.04;101375.28;1697788;82;26358;-63
2022/06/11 05:56:56;;;;;;;6.70;2.77;;;;;;;17.47;61.95;101371.92;1692270;82;98612;-65
2022/06/11 05:59:29;;;;;;;17.25;3.83;;;;;;;17.54;61.87;101377.36;1702816;82;27399;-63
2022/06/11 06:02:05;;;;;;;4.92;3.00;;;;;;;17.60;61.77;101374.28;1689396;82;98734;-64
2022/06/11 06:04:39;;;;;;;9.03;3.40;;;;;;;17.66;61.70;101379.36;1713529;82;25584;-63
2022/06/11 06:07:07;;;;;;;6.42;3.15;;;;;;;17.71;61.66;101379.95;1716510;81;98924;-63
2022/06/11 06:09:34;;;;;;;5.45;3.00;;;;;;;17.78;61.62;101377.25;1722918;81;25945;-64
2022/06/11 06:12:00;;;;;;;4.83;2.70;;;;;;;17.90;61.58;101383.76;1718119;81;27558;-64
2022/06/11 06:14:28;;;;;;;6.45;3.17;;;;;;;18.00;61.49;101392.20;1713880;81;98709;-63
2022/06/11 06:16:56;;;;;;;7.35;3.12;;;;;;;18.09;61.44;101392.98;1723259;81;25950;-63
2022/06/11 06:19:26;;;;;;;4.80;2.87;;;;;;;18.16;61.37;101387.06;1721156;81;99020;-63
2022/06/11 06:21:55;;;;;;;4.03;3.00;;;;;;;18.23;61.31;101381.22;1716831;81;25837;-65
2022/06/11 06:24:22;;;;;;;4.55;2.77;;;;;;;18.33;61.25;101394.59;1724483;81;28614;-66
2022/06/11 06:26:47;;;;;;;8.83;2.47;;;;;;;18.41;61.14;101389.06;1725928;80;98715;-64
2022/06/11 06:29:14;;;;;;;4.55;2.47;;;;;;;18.48;61.05;101387.69;1733396;81;25814;-63
2022/06/11 06:31:40;;;;;;;8.60;3.87;;;;;;;18.58;60.98;101383.02;1731908;81;98687;-64
2022/06/11 06:34:09;;;;;;;5.20;2.58;;;;;;;18.68;60.88;101385.56;1733505;81;26525;-64
2022/06/11 06:36:37;;;;;;;8.90;2.40;;;;;;;18.74;60.77;101378.38;1728433;81;26158;-63
2022/06/11 06:39:03;;;;;;;3.70;2.40;;;;;;;18.82;60.63;101380.09;1726726;80;99059;-63
2022/06/11 06:41:32;;;;;;;8.68;2.40;;;;;;;18.91;60.49;101379.48;1731456;81;25833;-64
2022/06/11 06:43:58;;;;;;;7.45;2.12;;;;;;;18.99;60.36;101383.92;1698731;82;98875;-64
2022/06/11 06:46:24;;;;;;;3.12;2.05;;;;;;;19.06;60.18;101387.97;1734557;80;25990;-64
2022/06/11 06:48:51;;;;;;;11.70;2.67;;;;;;;19.14;60.07;101376.10;1735226;81;28095;-64
2022/06/11 06:51:18;;;;;;;4.45;2.15;;;;;;;19.19;59.87;101369.48;1732259;80;97871;-64
2022/06/11 06:53:46;;;;;;;6.42;2.25;;;;;;;19.33;59.67;101380.29;1709261;82;27023;-64
2022/06/11 06:56:13;;;;;;;6.78;1.57;;;;;;;19.41;59.47;101374.71;1739381;80;98757;-64
2022/06/11 06:58:41;;;;;;;4.03;2.15;;;;;;;19.50;59.27;101372.34;1730319;81;25744;-64
2022/06/11 07:01:10;;;;;;;8.98;2.60;;;;;;;19.61;59.02;101377.45;1712300;81;98775;-63
2022/06/11 07:03:41;;;;;;;7.08;2.65;;;;;;;19.70;58.35;101374.09;1726020;81;25806;-64
2022/06/11 07:06:08;;;;;;;5.03;2.22;;;;;;;19.76;58.40;101365.50;1704951;82;25887;-64
2022/06/11 07:08:34;;;;;;;7.92;2.05;;;;;;;19.85;58.29;101368.55;1709642;82;98838;-64
2022/06/11 07:11:02;;;;;;;5.33;1.70;;;;;;;19.98;58.07;101372.14;1704955;82;25875;-63
2022/06/11 07:13:31;;;;;;;4.20;1.92;;;;;;;20.05;57.79;101370.72;1702398;82;98914;-64
2022/06/11 07:15:57;;;;;;;5.10;1.52;;;;;;;20.12;57.56;101378.83;1704091;82;26015;-63
2022/06/11 07:18:30;;;;;;;8.33;2.27;;;;;;;20.18;57.05;101374.31;1700189;82;25690;-64
2022/06/11 07:21:00;;;;;;;7.25;2.50;;;;;;;20.23;56.85;101377.57;1706816;81;99626;-63
2022/06/11 07:23:33;;;;;;;6.92;1.85;;;;;;;20.32;56.53;101379.63;1705815;82;25939;-65
2022/06/11 07:26:04;;;;;;;4.08;1.98;;;;;;;20.36;56.24;101374.34;1707468;82;98645;-63
2022/06/11 07:28:44;;;;;;;4.80;1.80;;;;;;;20.41;55.77;101373.55;1704370;82;25757;-64
2022/06/11 07:31:10;;;;;;;4.60;1.82;;;;;;;20.47;55.54;101377.68;1707349;82;98926;-63
2022/06/11 07:33:41;;;;;;;5.62;1.60;;;;;;;20.50;55.31;101384.75;1703514;82;26036;-64
2022/06/11 07:36:10;;;;;;;2.58;1.70;;;;;;;20.54;55.27;101378.09;1710055;82;25612;-63
2022/06/11 07:38:38;;;;;;;2.70;1.70;;;;;;;20.62;54.59;101382.00;1703187;82;99091;-64
2022/06/11 07:41:06;;;;;;;5.30;1.82;;;;;;;20.68;54.77;101376.59;1702267;82;26143;-63
2022/06/11 07:43:33;;;;;;;2.27;1.52;;;;;;;20.73;54.41;101370.31;1705661;82;98890;-63
2022/06/11 07:45:59;;;;;;;3.27;1.57;;;;;;;20.81;54.30;101371.94;1700750;82;27979;-64
2022/06/11 07:48:25;;;;;;;2.65;1.62;;;;;;;20.90;54.04;101377.19;1719435;80;25921;-64
2022/06/11 07:50:53;;;;;;;4.58;1.57;;;;;;;20.98;53.56;101382.45;1707091;82;98802;-64
2022/06/11 07:53:22;;;;;;;3.80;1.98;;;;;;;21.00;52.74;101377.75;1711492;82;26338;-64
2022/06/11 07:55:51;;;;;;;7.70;2.00;;;;;;;21.05;52.35;101371.45;1702626;82;98803;-65
2022/06/11 07:58:33;;;;;;;4.17;1.42;;;;;;;21.13;52.20;101380.42;1713621;82;25718;-64
2022/06/11 08:01:00;;;;;;;5.17;1.50;;;;;;;21.07;51.73;101357.22;1701329;82;25729;-65
2022/06/11 08:03:31;;;;;;;2.47;1.50;;;;;;;21.21;51.97;101371.16;1697524;82;98536;-65
2022/06/11 08:05:56;;;;;;;2.67;1.80;;;;;;;21.21;51.97;101371.16;1716616;81;25819;-65
2022/06/11 08:08:24;;;;;;;9.65;2.62;;;;;;;21.30;51.48;101375.95;1721311;81;99207;-65
2022/06/11 08:10:53;;;;;;;2.85;1.60;;;;;;;21.30;51.48;101375.95;1721299;81;26454;-65
2022/06/11 08:13:20;;;;;;;5.83;1.82;;;;;;;21.37;51.55;101372.25;1720750;81;99162;-64
2022/06/11 08:15:52;;;;;;;4.67;2.00;;;;;;;21.49;51.15;101364.48;1714868;81;27569;-64
2022/06/11 08:18:22;;;;;;;4.83;1.65;;;;;;;21.50;51.43;101359.90;1716736;81;26037;-64
2022/06/11 08:20:51;;;;;;;2.80;2.10;;;;;;;21.50;51.43;101359.90;1723100;81;98707;-65
2022/06/11 08:23:19;;;;;;;4.53;2.02;;;;;;;21.55;51.27;101355.83;1713060;81;25710;-64
2022/06/11 08:25:46;;;;;;;4.80;1.70;;;;;;;21.64;51.10;101367.38;1710889;81;98875;-64
2022/06/11 08:28:16;;;;;;;5.75;1.80;;;;;;;21.70;50.91;101360.58;1716343;81;29592;-64
2022/06/11 08:30:44;;;;;;;6.83;2.33;;;;;;;21.69;50.79;101355.61;1715526;81;34880;-64
2022/06/11 08:33:12;;;;;;;5.35;2.30;;;;;;;21.70;50.48;101353.26;1715569;81;99119;-64
2022/06/11 08:35:40;;;;;;;5.12;1.92;;;;;;;21.69;50.33;101354.75;1719069;81;25818;-64
2022/06/11 08:38:08;;;;;;;2.95;1.90;;;;;;;21.75;50.37;101362.94;1711736;81;99146;-64
2022/06/11 08:40:46;;;;;;;12.18;3.80;;;;;;;21.82;50.33;101355.52;1713471;82;26874;-64
2022/06/11 08:43:23;;;;;;;2.62;1.72;;;;;;;21.86;50.22;101352.92;1692700;82;99130;-64
2022/06/11 08:45:55;;;;;;;2.80;1.70;;;;;;;21.97;50.09;101354.80;1697861;82;25685;-64
2022/06/11 08:48:47;;;;;;;5.70;1.90;;;;;;;22.13;49.90;101351.23;1649085;83;26475;-64
2022/06/11 08:51:45;;;;;;;7.03;2.15;;;;;;;22.26;49.75;101351.98;1652771;84;98834;-64
2022/06/11 08:54:17;;;;;;;5.10;2.67;;;;;;;22.42;49.36;101348.01;1663377;84;27412;-64
2022/06/11 08:56:55;;;;;;;8.73;1.70;;;;;;;22.39;49.17;101347.76;1697494;82;99056;-64
2022/06/11 08:59:57;;;;;;;3.62;1.95;;;;;;;22.43;48.89;101344.28;1708468;81;25784;-63
2022/06/11 09:03:09;;;;;;;3.02;1.65;;;;;;;22.50;48.78;101346.38;1721941;81;98979;-66
2022/06/11 09:05:59;;;;;;;4.47;1.45;;;;;;;22.53;48.56;101342.03;1702386;82;25792;-64
2022/06/11 09:09:00;;;;;;;3.70;1.30;;;;;;;22.57;48.40;101350.84;1703521;82;98807;-63
2022/06/11 09:11:53;;;;;;;3.08;1.15;;;;;;;22.55;47.98;101354.20;1693504;82;26022;-64
2022/06/11 09:14:45;;;;;;;2.90;1.40;;;;;;;22.43;47.46;101352.47;1701863;82;98814;-64
2022/06/11 09:17:42;;;;;;;6.58;2.33;;;;;;;22.34;47.14;101344.03;1693813;83;25927;-64
2022/06/11 09:20:42;;;;;;;4.28;1.10;;;;;;;22.35;47.17;101341.67;1702096;82;98795;-63
2022/06/11 09:23:46;;;;;;;6.13;1.70;;;;;;;22.45;47.19;101335.46;1699990;82;26825;-64
2022/06/11 09:26:45;;;;;;;6.92;1.55;;;;;;;22.66;47.03;101341.39;1696485;82;98795;-64
2022/06/11 09:29:32;;;;;;;4.90;1.35;;;;;;;22.78;46.38;101336.77;1694638;82;25752;-64
2022/06/11 09:32:15;;;;;;;4.58;1.40;;;;;;;22.77;46.14;101332.30;1697194;82;98682;-64
2022/06/11 09:34:55;;;;;;;6.97;2.00;;;;;;;22.87;45.90;101324.22;1694895;82;26191;-64
2022/06/11 09:37:35;;;;;;;2.40;1.30;;;;;;;22.92;45.68;101322.84;1702334;82;99120;-65
2022/06/11 09:40:38;;;;;;;6.23;2.00;;;;;;;23.06;45.56;101323.53;1715076;82;25883;-65
2022/06/11 09:43:46;;;;;;;7.65;2.12;;;;;;;23.15;45.30;101309.95;1696838;82;25778;-64
2022/06/11 09:46:44;;;;;;;4.37;1.60;;;;;;;23.17;45.01;101310.69;1702261;82;25759;-64
2022/06/11 09:49:36;;;;;;;4.60;1.40;;;;;;;23.28;45.10;101317.97;1695577;82;25800;-64
2022/06/11 09:52:28;;;;;;;5.00;2.02;;;;;;;23.41;44.96;101310.41;1701842;82;98563;-64
2022/06/11 09:55:29;;;;;;;3.40;1.50;;;;;;;23.54;44.87;101310.23;1695094;82;27101;-65
2022/06/11 09:58:29;;;;;;;9.95;1.87;;;;;;;23.63;44.74;101303.95;1706050;82;98897;-64
2022/06/11 10:01:00;;;;;;;11.53;2.52;;;;;;;23.81;44.66;101309.19;1698365;82;25850;-64
2022/06/11 10:03:44;;;;;;;4.83;1.45;;;;;;;23.83;44.06;101301.70;1697159;82;98826;-64
2022/06/11 10:06:15;;;;;;;3.72;1.47;;;;;;;23.82;43.64;101307.31;1718946;81;27454;-66
2022/06/11 10:09:07;;;;;;;4.95;1.37;;;;;;;23.64;43.40;101306.56;1714692;81;98774;-64
2022/06/11 10:11:51;;;;;;;4.37;1.40;;;;;;;23.56;43.14;101305.50;1721205;81;25828;-65
2022/06/11 10:14:56;;;;;;;9.98;1.47;;;;;;;23.49;43.00;101320.18;1715295;81;99047;-65
2022/06/11 10:17:35;;;;;;;9.70;1.60;;;;;;;23.53;42.90;101318.05;1719056;81;25799;-65
2022/06/11 10:20:27;;;;;;;4.78;1.45;;;;;;;23.61;42.67;101313.67;1718039;81;99055;-64
2022/06/11 10:23:14;;;;;;;4.70;1.50;;;;;;;23.70;42.65;101310.63;1711269;81;25907;-65
2022/06/11 10:26:01;;;;;;;6.60;1.90;;;;;;;23.81;42.47;101309.19;1711848;81;98856;-66
2022/06/11 10:28:38;;;;;;;5.70;2.00;;;;;;;23.78;42.14;101303.98;1713069;81;26371;-65
2022/06/11 10:31:10;;;;;;;3.65;1.30;;;;;;;23.78;41.49;101307.22;1715880;81;25684;-63
2022/06/11 10:34:13;;;;;;;5.67;1.30;;;;;;;23.81;41.58;101303.70;1713002;81;98759;-64
2022/06/11 10:36:45;;;;;;;3.45;1.22;;;;;;;23.94;41.71;101310.33;1716683;81;25760;-65
2022/06/11 10:39:22;;;;;;;7.12;2.02;;;;;;;24.13;41.65;101298.09;1715851;81;98806;-65
2022/06/11 10:42:19;;;;;;;10.40;1.72;;;;;;;24.30;41.62;101302.59;1717166;81;26433;-65
2022/06/11 10:44:55;;;;;;;3.58;1.30;;;;;;;24.55;41.61;101296.60;1716812;81;98968;-65
2022/06/11 10:47:38;;;;;;;5.22;1.80;;;;;;;24.83;41.16;101294.41;1710017;81;27447;-65
2022/06/11 10:50:14;;;;;;;2.25;1.07;;;;;;;25.00;41.06;101292.00;1713112;81;98882;-65
2022/06/11 10:53:19;;;;;;;3.55;1.65;;;;;;;25.09;41.03;101284.28;1718434;81;26621;-65
2022/06/11 10:56:04;;;;;;;3.17;1.37;;;;;;;25.31;41.00;101286.72;1709497;81;98970;-65
2022/06/11 10:58:48;;;;;;;8.90;1.92;;;;;;;25.52;40.62;101290.66;1693942;81;25785;-63
2022/06/11 11:01:42;;;;;;;7.60;1.25;;;;;;;25.54;39.26;101300.48;1716438;81;29606;-63
2022/06/11 11:04:28;;;;;;;5.33;0.90;;;;;;;25.30;38.81;101283.62;1706499;81;98534;-64
2022/06/11 11:07:20;;;;;;;3.52;1.30;;;;;;;25.40;39.13;101284.98;1721796;81;26218;-64
2022/06/11 11:09:49;;;;;;;4.35;1.30;;;;;;;25.59;39.29;101277.21;1724120;81;98730;-64
2022/06/11 11:12:32;;;;;;;12.33;1.77;;;;;;;25.75;38.60;101276.98;1726859;81;25723;-64
2022/06/11 11:15:06;;;;;;;2.77;1.17;;;;;;;25.58;38.06;101283.72;1691000;82;98933;-64
2022/06/11 11:17:32;;;;;;;2.87;1.20;;;;;;;25.34;37.89;101276.83;1709160;81;27163;-63
2022/06/11 11:23:02;;;;;;;2.83;1.47;;;;;;;25.21;38.18;101278.50;1716456;81;25704;-64
2022/06/11 11:25:40;;;;;;;5.00;1.42;;;;;;;25.20;38.15;101280.88;1717141;81;26402;-63
2022/06/11 11:28:16;;;;;;;2.35;1.15;;;;;;;25.19;37.65;101276.91;1718546;81;98933;-64
2022/06/11 11:30:44;;;;;;;2.47;1.00;;;;;;;25.31;37.63;101268.02;1721053;81;25853;-64
2022/06/11 11:33:33;;;;;;;14.90;2.55;;;;;;;25.42;36.72;101274.22;1717157;81;99218;-63
2022/06/11 11:36:25;;;;;;;4.62;1.40;;;;;;;25.39;36.48;101265.41;1714425;81;26529;-64
2022/06/11 11:39:17;;;;;;;2.90;0.90;;;;;;;25.45;36.91;101261.56;1722791;81;99508;-63
2022/06/11 11:42:10;;;;;;;3.55;1.10;;;;;;;25.68;36.75;101262.12;1713745;81;27342;-64
2022/06/11 11:44:41;;;;;;;7.50;1.72;;;;;;;25.90;36.43;101271.01;1709280;81;98690;-64
2022/06/11 11:47:15;;;;;;;3.95;1.50;;;;;;;26.09;36.59;101263.52;1721466;81;26372;-63
2022/06/11 11:49:46;;;;;;;3.62;1.67;;;;;;;26.19;36.75;101256.60;1722051;81;25788;-65
2022/06/11 11:52:16;;;;;;;2.77;1.15;;;;;;;26.24;36.84;101257.52;1720958;81;98917;-64
2022/06/11 11:55:05;;;;;;;2.33;1.10;;;;;;;26.28;35.88;101253.45;1706154;81;27393;-63
2022/06/11 11:57:32;;;;;;;3.22;1.57;;;;;;;26.15;36.41;101254.67;1720511;81;98631;-62
2022/06/11 12:00:10;;;;;;;6.05;1.62;;;;;;;26.16;36.45;101245.92;1722689;81;26245;-65
2022/06/11 12:02:48;;;;;;;2.67;1.70;;;;;;;26.23;36.50;101249.78;1724604;81;98689;-64